Time;durP1;ratioP1;P1;durP2;ratioP2;P2;SDS_P1;SDS_P2;PMS_P1;PMS_P2;Temp;Humidity;BMP_temperature;BMP_pressure;BME280_temperature;BME280_humidity;BME280_pressure;Samples;Min_cycle;Max_cycle;Signal;HPM_P1;HPM_P2
2023/08/09 00:01:44;;;;;;;5.20;2.72;;;;;;;14.43;65.72;99980.42;1762087;81;25383;-47
2023/08/09 00:04:10;;;;;;;77.22;72.53;;;;;;;14.42;65.68;99984.84;1762079;81;25455;-49
2023/08/09 00:06:36;;;;;;;75.60;71.07;;;;;;;14.42;65.46;99988.38;1793451;80;25492;-50
2023/08/09 00:09:03;;;;;;;75.15;70.55;;;;;;;14.41;65.78;99986.00;1762138;81;28116;-48
2023/08/09 00:11:29;;;;;;;75.20;70.60;;;;;;;14.38;65.91;99989.61;1773431;80;25513;-47
2023/08/09 00:13:55;;;;;;;78.05;73.35;;;;;;;14.37;66.14;99998.92;1762054;81;25457;-48
2023/08/09 00:16:22;;;;;;;78.65;73.70;;;;;;;14.34;66.08;99996.88;1793409;80;25451;-47
2023/08/09 00:18:48;;;;;;;75.60;70.90;;;;;;;14.33;66.16;99993.92;1762159;81;25403;-48
2023/08/09 00:21:14;;;;;;;73.97;69.27;;;;;;;14.31;66.42;100000.27;1793465;80;28041;-48
2023/08/09 00:23:41;;;;;;;74.97;69.90;;;;;;;14.32;66.41;99996.98;1762025;81;25689;-47
2023/08/09 00:26:07;;;;;;;74.95;70.35;;;;;;;14.31;66.60;100007.66;1793340;79;25781;-48
2023/08/09 00:28:33;;;;;;;76.42;71.55;;;;;;;14.32;66.78;100003.23;1734096;81;26169;-46
2023/08/09 00:30:59;;;;;;;76.82;72.08;;;;;;;14.31;66.73;100008.44;1793478;80;25393;-47
2023/08/09 00:33:26;;;;;;;76.05;71.42;;;;;;;14.31;66.88;100004.36;1762092;81;28151;-47
2023/08/09 00:35:52;;;;;;;76.75;72.08;;;;;;;14.30;67.08;99992.45;1793338;80;25376;-50
2023/08/09 00:38:19;;;;;;;74.15;69.67;;;;;;;14.29;67.17;100001.77;1762104;81;25417;-51
2023/08/09 00:40:45;;;;;;;77.87;73.15;;;;;;;14.28;67.13;100003.67;1793401;80;25889;-49
2023/08/09 00:43:11;;;;;;;73.55;69.03;;;;;;;14.28;67.28;100010.47;1762149;81;25462;-49
2023/08/09 00:45:42;;;;;;;80.92;76.10;;;;;;;14.26;67.32;100010.03;1793439;80;27530;-48
2023/08/09 00:48:08;;;;;;;77.50;72.80;;;;;;;14.27;67.48;100006.73;1761981;81;25393;-49
2023/08/09 00:50:35;;;;;;;79.17;74.37;;;;;;;14.25;67.51;100006.28;1793472;80;25459;-50
2023/08/09 00:53:02;;;;;;;79.58;74.45;;;;;;;14.23;67.47;100005.27;1762071;81;25458;-48
2023/08/09 00:55:29;;;;;;;76.70;71.90;;;;;;;14.22;67.62;100000.16;1764371;80;25461;-48
2023/08/09 00:57:55;;;;;;;75.92;71.15;;;;;;;14.19;67.77;99999.70;1762073;81;27466;-49
2023/08/09 01:00:21;;;;;;;72.32;67.85;;;;;;;14.17;67.76;99999.27;1793327;80;25688;-48
2023/08/09 01:02:48;;;;;;;53.45;50.17;;;;;;;;;;1762070;81;25464;-48
2023/08/09 01:05:16;;;;;;;90.60;85.03;;;;;;;;;;1773475;80;25362;-48
2023/08/09 01:07:55;;;;;;;73.55;68.92;;;;;;;;;;1773525;80;25332;-50
2023/08/09 01:10:27;;;;;;;50.30;47.23;;;;;;;;;;1773545;80;27414;-48
2023/08/09 01:13:01;;;;;;;68.78;64.55;;;;;;;;;;1772986;80;25788;-51
2023/08/09 01:15:29;;;;;;;75.72;70.75;;;;;;;;;;1773421;80;25354;-49
2023/08/09 01:17:57;;;;;;;16.67;15.63;;;;;;;;;;1773639;80;25359;-47
2023/08/09 01:20:25;;;;;;;6.58;6.28;;;;;;;;;;1747573;80;25367;-47
2023/08/09 01:23:08;;;;;;;69.10;64.90;;;;;;;;;;1773513;80;27524;-49
2023/08/09 01:25:35;;;;;;;73.67;69.07;;;;;;;;;;1772144;80;25617;-47
2023/08/09 01:28:03;;;;;;;34.80;32.70;;;;;;;;;;1770514;81;25340;-50
2023/08/09 01:30:31;;;;;;;57.83;54.13;;;;;;;;;;1770700;81;25369;-50
2023/08/09 01:32:59;;;;;;;7.78;7.42;;;;;;;;;;1770472;81;25325;-49
2023/08/09 01:35:29;;;;;;;12.33;11.73;;;;;;;;;;1770662;81;28050;-48
2023/08/09 01:37:59;;;;;;;9.75;9.25;;;;;;;;;;1770456;81;25341;-48
2023/08/09 01:40:26;;;;;;;8.80;8.40;;;;;;;;;;1770455;81;25362;-48
2023/08/09 01:42:54;;;;;;;69.82;65.52;;;;;;;;;;1770420;81;25325;-50
2023/08/09 01:45:23;;;;;;;9.65;9.15;;;;;;;;;;1770580;81;25307;-47
2023/08/09 01:47:50;;;;;;;10.93;10.40;;;;;;;;;;1770578;81;27397;-48
2023/08/09 01:50:20;;;;;;;52.23;49.18;;;;;;;;;;1770399;81;25301;-50
2023/08/09 01:52:47;;;;;;;74.03;69.60;;;;;;;;;;1770479;81;25295;-48
2023/08/09 01:55:17;;;;;;;72.45;68.00;;;;;;;;;;1770443;81;25407;-49
2023/08/09 01:57:46;;;;;;;71.53;67.32;;;;;;;;;;1770502;81;25387;-49
2023/08/09 02:00:19;;;;;;;;;;;;;;;;;;1772419;81;28143;-48
2023/08/09 02:02:48;;;;;;;76.05;71.30;;;;;;;;;;1770435;81;25630;-50
2023/08/09 02:05:16;;;;;;;51.18;48.13;;;;;;;;;;1769908;81;25298;-49
2023/08/09 02:07:43;;;;;;;81.80;75.65;;;;;;;;;;1770430;81;25362;-49
2023/08/09 02:10:11;;;;;;;62.48;58.33;;;;;;;;;;1770485;81;25308;-48
2023/08/09 02:12:39;;;;;;;51.90;48.48;;;;;;;;;;1770466;81;27459;-49
2023/08/09 02:15:07;;;;;;;71.95;67.32;;;;;;;;;;1742281;81;25587;-48
2023/08/09 02:17:34;;;;;;;58.73;55.10;;;;;;;;;;1770758;81;25339;-48
2023/08/09 02:20:04;;;;;;;46.02;42.90;;;;;;;;;;1770443;81;25366;-49
2023/08/09 02:22:37;;;;;;;11.83;11.12;;;;;;;;;;1770483;81;25326;-48
2023/08/09 02:25:04;;;;;;;12.03;11.43;;;;;;;;;;1770401;81;27409;-47
2023/08/09 02:27:31;;;;;;;12.47;11.85;;;;;;;;;;1770307;81;25336;-50
2023/08/09 02:30:02;;;;;;;10.75;10.25;;;;;;;;;;1770435;81;25311;-48
2023/08/09 02:32:28;;;;;;;36.35;34.30;;;;;;;;;;1770115;81;32501;-48
2023/08/09 02:34:55;;;;;;;85.15;79.80;;;;;;;;;;1770454;81;25306;-48
2023/08/09 02:37:22;;;;;;;54.53;51.30;;;;;;;;;;1742193;81;27160;-48
2023/08/09 02:39:49;;;;;;;58.80;55.17;;;;;;;;;;1770295;81;25565;-48
2023/08/09 02:42:16;;;;;;;73.92;68.50;;;;;;;;;;1770429;81;25363;-48
2023/08/09 02:44:43;;;;;;;16.37;15.60;;;;;;;;;;1770407;81;25506;-49
2023/08/09 02:47:10;;;;;;;12.03;11.43;;;;;;;;;;1770460;81;25305;-47
2023/08/09 02:49:37;;;;;;;12.93;12.28;;;;;;;;;;1770426;81;27438;-47
2023/08/09 02:52:04;;;;;;;9.95;9.45;;;;;;;;;;1770289;81;25291;-51
2023/08/09 02:54:31;;;;;;;11.63;11.05;;;;;;;;;;1770425;81;25346;-48
2023/08/09 02:56:58;;;;;;;7.67;7.28;;;;;;;;;;1742330;81;25551;-49
2023/08/09 02:59:25;;;;;;;14.35;13.65;;;;;;;;;;1770445;81;25337;-50
2023/08/09 03:01:52;;;;;;;18.12;17.20;;;;;;;;;;1770386;81;27349;-49
2023/08/09 03:04:19;;;;;;;4.00;3.83;;;;;;;;;;1770485;81;25338;-48
2023/08/09 03:06:46;;;;;;;53.02;49.88;;;;;;;;;;1770453;81;25294;-49
2023/08/09 03:09:12;;;;;;;91.75;85.47;;;;;;;;;;1770370;81;26056;-47
2023/08/09 03:11:39;;;;;;;91.12;84.85;;;;;;;;;;1770493;81;25350;-51
2023/08/09 03:14:07;;;;;;;81.63;76.05;;;;;;;;;;1770548;81;27411;-47
2023/08/09 03:16:34;;;;;;;78.87;73.65;;;;;;;;;;1770497;81;25393;-46
2023/08/09 03:19:03;;;;;;;17.82;16.77;;;;;;;;;;1770567;81;25301;-48
2023/08/09 03:21:30;;;;;;;54.85;51.50;;;;;;;;;;1770706;81;25520;-52
2023/08/09 03:23:57;;;;;;;61.05;57.00;;;;;;;;;;1770576;81;25338;-48
2023/08/09 03:26:24;;;;;;;76.47;70.50;;;;;;;;;;1771299;80;27937;-48
2023/08/09 03:28:52;;;;;;;53.17;49.25;;;;;;;;;;1773440;80;25284;-48
2023/08/09 03:33:45;;;;;;;10.30;9.80;;;;;;;13.69;74.90;100063.33;1905562;74;25520;-45
2023/08/09 03:38:01;;;;;;;69.73;65.50;;;;;;;13.62;75.26;100054.36;1905475;74;25352;-46
2023/08/09 03:40:27;;;;;;;73.60;69.07;;;;;;;12.84;75.28;99932.84;1859946;77;25538;-49
2023/08/09 03:42:53;;;;;;;66.53;62.08;;;;;;;13.47;75.56;100045.48;1859868;76;27715;-47
2023/08/09 03:45:22;;;;;;;17.10;16.12;;;;;;;;;;1859822;77;25520;-48
2023/08/09 03:47:49;;;;;;;91.87;85.85;;;;;;;;;;1859841;77;25419;-48
2023/08/09 03:50:17;;;;;;;74.92;70.03;;;;;;;;;;1859882;76;25585;-48
2023/08/09 03:52:45;;;;;;;12.93;12.23;;;;;;;;;;1860035;77;25285;-51
2023/08/09 03:55:12;;;;;;;72.27;67.67;;;;;;;;;;1859897;77;29638;-47
2023/08/09 03:57:39;;;;;;;73.80;69.25;;;;;;;;;;1859824;76;25508;-48
2023/08/09 04:00:17;;;;;;;73.45;68.85;;;;;;;;;;1859829;77;25254;-48
2023/08/09 04:02:40;;;;;;;76.12;71.47;;;;;;;;;;1858416;76;25506;-47
2023/08/09 04:05:08;;;;;;;76.42;71.67;;;;;;;;;;1860145;76;29623;-48
2023/08/09 04:07:35;;;;;;;77.12;72.27;;;;;;;;;;1859917;77;27348;-49
2023/08/09 04:10:07;;;;;;;76.95;72.05;;;;;;;;;;1859756;76;25318;-48
2023/08/09 04:12:40;;;;;;;80.60;75.17;;;;;;;;;;1859949;77;25434;-48
2023/08/09 04:15:11;;;;;;;79.20;73.83;;;;;;;;;;1859819;77;26141;-49
2023/08/09 04:17:38;;;;;;;63.95;59.48;;;;;;;;;;1859836;77;25429;-48
2023/08/09 04:21:58;;;;;;;41.87;39.20;;;;;;;13.29;78.29;100070.59;1905471;74;26027;-45
2023/08/09 04:24:24;;;;;;;52.83;49.50;;;;;;;13.21;78.49;100053.80;1860082;77;25553;-47
2023/08/09 04:26:53;;;;;;;58.13;54.58;;;;;;;13.24;78.84;100053.93;1859950;77;27525;-48
2023/08/09 04:29:20;;;;;;;79.20;74.30;;;;;;;;;;1859819;77;25614;-51
2023/08/09 04:31:48;;;;;;;78.40;73.73;;;;;;;;;;1859832;76;25497;-47
2023/08/09 04:34:16;;;;;;;71.57;67.08;;;;;;;;;;1859852;77;25674;-48
2023/08/09 04:36:45;;;;;;;105.65;98.03;;;;;;;;;;1859941;77;25530;-48
2023/08/09 04:39:13;;;;;;;;;;;;;;;;;;1862595;76;27516;-48
2023/08/09 04:41:39;;;;;;;102.47;95.57;;;;;;;;;;1859913;77;25813;-48
2023/08/09 04:44:06;;;;;;;14.13;13.37;;;;;;;;;;1859889;77;34676;-47
2023/08/09 04:46:35;;;;;;;9.68;9.23;;;;;;;;;;1860008;76;25343;-47
2023/08/09 04:49:06;;;;;;;11.20;10.60;;;;;;;;;;1859871;77;25545;-47
2023/08/09 04:51:33;;;;;;;13.72;12.95;;;;;;;;;;1859820;76;27395;-48
2023/08/09 04:54:00;;;;;;;11.57;10.95;;;;;;;;;;1859884;76;25408;-47
2023/08/09 16:05:57;;;;;;;12.68;11.88;;;;;;;17.57;73.38;100275.38;1868342;76;25498;-50
2023/08/09 16:08:24;;;;;;;74.75;70.30;;;;;;;17.42;73.40;100267.97;1824511;78;25420;-51
2023/08/09 16:10:51;;;;;;;77.60;72.78;;;;;;;17.34;73.72;100274.64;1824526;78;27476;-50
2023/08/09 16:13:18;;;;;;;130.57;107.80;;;;;;;17.29;73.89;100272.18;1824554;78;27261;-49
2023/08/09 16:15:44;;;;;;;50.48;38.67;;;;;;;17.22;74.74;100276.12;1824665;78;25568;-51
2023/08/09 16:18:11;;;;;;;14.05;6.45;;;;;;;17.15;74.51;100283.57;1803899;78;25878;-50
2023/08/09 16:20:37;;;;;;;3.55;3.25;;;;;;;17.07;74.66;100281.02;1824523;78;25446;-51
2023/08/09 16:23:04;;;;;;;4.75;3.62;;;;;;;17.01;74.86;100283.23;1824593;78;27575;-49
2023/08/09 16:25:30;;;;;;;5.00;3.90;;;;;;;16.95;75.11;100282.69;1824428;78;25724;-50
2023/08/09 16:27:57;;;;;;;4.35;3.30;;;;;;;16.92;75.88;100285.33;1824493;78;25547;-49
2023/08/09 16:30:24;;;;;;;5.03;3.35;;;;;;;16.87;75.41;100280.13;1824378;78;25436;-50
2023/08/09 16:32:50;;;;;;;5.62;3.55;;;;;;;16.84;75.77;100283.53;1824452;78;25397;-51
2023/08/09 16:35:17;;;;;;;5.83;3.67;;;;;;;16.79;75.93;100284.60;1824447;78;28090;-50
2023/08/09 16:37:43;;;;;;;4.70;4.28;;;;;;;16.75;76.53;100281.78;1824350;78;25363;-49
2023/08/09 16:40:10;;;;;;;8.33;7.70;;;;;;;16.70;76.20;100287.50;1820979;78;25551;-50
2023/08/09 16:42:37;;;;;;;69.22;65.03;;;;;;;16.67;76.43;100286.02;1824430;78;25618;-49
2023/08/09 16:45:05;;;;;;;14.80;13.53;;;;;;;16.59;76.61;100287.20;1824380;78;25448;-51
2023/08/09 16:47:32;;;;;;;58.95;55.45;;;;;;;16.57;76.68;100290.08;1824563;78;27452;-49
2023/08/09 16:49:59;;;;;;;7.05;3.17;;;;;;;16.51;76.41;100286.79;1824300;78;25588;-49
2023/08/09 16:52:27;;;;;;;76.53;71.92;;;;;;;16.47;76.34;100296.83;1824444;78;25381;-53
2023/08/09 16:54:54;;;;;;;76.28;71.70;;;;;;;16.42;76.57;100304.69;1824432;78;25384;-51
2023/08/09 16:57:21;;;;;;;50.20;47.05;;;;;;;16.39;77.43;100299.14;1824409;78;25547;-50
2023/08/09 16:59:47;;;;;;;72.97;68.52;;;;;;;16.35;77.37;100305.08;1824441;78;28166;-50
2023/08/09 17:02:13;;;;;;;6.83;5.17;;;;;;;16.31;77.94;100299.52;1824328;78;25392;-48
2023/08/09 17:04:40;;;;;;;14.58;13.45;;;;;;;16.27;77.66;100298.61;1824276;78;25436;-51
2023/08/09 17:07:10;;;;;;;61.25;57.65;;;;;;;16.25;77.69;100302.27;1824398;78;25670;-49
2023/08/09 17:09:35;;;;;;;3.20;2.90;;;;;;;16.23;78.06;100311.37;1824146;78;25602;-50
2023/08/09 17:12:01;;;;;;;4.92;3.00;;;;;;;16.20;78.50;100318.30;1824362;78;27461;-49
2023/08/09 17:14:27;;;;;;;76.67;72.08;;;;;;;16.18;78.30;100321.95;1824320;78;26124;-50
2023/08/09 17:16:53;;;;;;;77.55;72.87;;;;;;;16.16;78.27;100322.09;1823965;78;25372;-52
2023/08/09 17:19:25;;;;;;;80.07;75.22;;;;;;;16.13;78.41;100320.05;1823764;78;25533;-50
2023/08/09 17:21:47;;;;;;;74.40;69.95;;;;;;;16.11;78.46;100323.12;1823219;78;25528;-51
2023/08/09 17:24:14;;;;;;;44.10;41.18;;;;;;;16.09;78.65;100324.05;1823826;78;27531;-51
2023/08/09 17:26:41;;;;;;;8.78;7.03;;;;;;;16.06;78.89;100326.88;1823761;78;26132;-51
2023/08/09 17:29:07;;;;;;;7.62;6.70;;;;;;;16.05;78.97;100332.09;1823780;78;25484;-49
2023/08/09 17:31:33;;;;;;;28.57;26.82;;;;;;;16.04;79.12;100328.37;1823727;78;25415;-50
2023/08/09 17:33:59;;;;;;;79.58;74.55;;;;;;;16.02;79.00;100327.91;1823802;78;25423;-49
2023/08/09 17:36:25;;;;;;;76.90;72.20;;;;;;;15.98;78.83;100333.26;1823800;78;27525;-50
2023/08/09 17:38:52;;;;;;;54.30;51.00;;;;;;;15.94;78.70;100336.46;1823694;78;26068;-50
2023/08/09 17:41:18;;;;;;;6.62;4.67;;;;;;;15.92;78.99;100341.47;1823794;78;25443;-50
2023/08/09 17:43:44;;;;;;;43.75;41.02;;;;;;;15.89;79.03;100342.73;1823713;78;25594;-48
2023/08/09 17:46:10;;;;;;;72.42;65.55;;;;;;;15.85;79.27;100345.32;1823845;78;25369;-48
2023/08/09 17:48:36;;;;;;;29.63;27.07;;;;;;;15.81;79.66;100349.89;1803272;78;27368;-47
2023/08/09 17:51:05;;;;;;;13.05;9.70;;;;;;;15.78;79.73;100343.20;1823628;78;25591;-48
2023/08/09 17:53:34;;;;;;;11.03;9.63;;;;;;;15.77;80.08;100342.17;1823826;78;25626;-50
2023/08/09 17:56:01;;;;;;;46.83;44.00;;;;;;;15.74;79.80;100346.91;1823915;78;25839;-52
2023/08/09 17:58:28;;;;;;;76.37;71.65;;;;;;;15.71;79.78;100345.66;1802928;78;25468;-48
2023/08/09 18:00:55;;;;;;;76.95;72.32;;;;;;;15.69;79.88;100344.63;1823704;78;27466;-50
2023/08/09 18:03:21;;;;;;;63.52;59.63;;;;;;;15.67;80.08;100342.81;1823624;78;25828;-49
2023/08/09 18:05:48;;;;;;;4.15;3.72;;;;;;;15.64;80.08;100349.53;1823632;78;25493;-48
2023/08/09 18:08:14;;;;;;;9.55;8.75;;;;;;;15.61;79.82;100344.75;1823716;78;25712;-48
2023/08/09 18:10:42;;;;;;;12.33;11.33;;;;;;;15.59;79.74;100350.55;1823718;78;25506;-48
2023/08/09 18:13:08;;;;;;;27.95;25.77;;;;;;;15.55;79.77;100350.22;1823047;78;27488;-48
2023/08/09 18:15:35;;;;;;;8.40;5.37;;;;;;;15.54;80.27;100355.44;1823210;78;25593;-48
2023/08/09 18:18:05;;;;;;;7.47;4.78;;;;;;;15.50;80.69;100347.94;1823366;77;25682;-47
2023/08/09 18:20:32;;;;;;;6.22;4.95;;;;;;;15.47;80.81;100358.73;1803279;78;25737;-47
2023/08/09 18:22:59;;;;;;;6.42;5.65;;;;;;;15.44;81.11;100356.13;1823412;78;25829;-47
2023/08/09 18:25:27;;;;;;;23.07;21.60;;;;;;;15.41;80.96;100364.16;1823342;78;27831;-46
2023/08/09 18:27:55;;;;;;;80.90;75.83;;;;;;;15.38;81.43;100371.10;1823598;78;25650;-45
2023/08/09 18:30:24;;;;;;;69.17;64.67;;;;;;;15.35;81.44;100376.44;1823745;78;25105;-47
2023/08/09 18:32:51;;;;;;;62.43;58.20;;;;;;;15.31;81.39;100384.50;1824000;78;25524;-45
2023/08/09 18:35:19;;;;;;;59.27;55.45;;;;;;;15.27;81.66;100383.57;1823818;78;25537;-46
2023/08/09 18:37:47;;;;;;;26.50;24.35;;;;;;;15.21;81.77;100381.64;1823696;78;28114;-46
2023/08/09 18:40:16;;;;;;;8.68;6.53;;;;;;;15.18;82.04;100382.31;1823806;78;25368;-46
2023/08/09 18:42:44;;;;;;;21.20;12.33;;;;;;;15.16;81.93;100381.86;1823958;78;25614;-46
2023/08/09 18:45:13;;;;;;;11.55;8.93;;;;;;;15.14;82.64;100382.77;1823510;78;25533;-47
2023/08/09 18:47:40;;;;;;;39.10;36.30;;;;;;;15.11;82.96;100379.34;1803162;78;25698;-46
2023/08/09 18:50:10;;;;;;;78.30;73.17;;;;;;;15.09;83.02;100377.53;1823763;78;27446;-47
2023/08/09 18:52:39;;;;;;;79.45;74.45;;;;;;;15.06;83.03;100374.12;1823830;78;25250;-47
2023/08/09 18:55:08;;;;;;;38.90;36.23;;;;;;;15.01;82.90;100372.97;1824062;78;25420;-47
2023/08/09 18:57:36;;;;;;;79.47;74.53;;;;;;;14.99;82.99;100373.88;1823866;77;25703;-47
2023/08/09 19:00:05;;;;;;;78.92;73.95;;;;;;;14.97;83.20;100376.16;1823791;78;25542;-47
2023/08/09 19:02:33;;;;;;;81.08;76.02;;;;;;;14.94;83.17;100377.03;1823894;78;27616;-46
2023/08/09 19:05:00;;;;;;;77.37;72.47;;;;;;;14.91;83.36;100375.00;1820105;78;25592;-47
2023/08/09 19:07:27;;;;;;;76.97;72.03;;;;;;;14.88;83.44;100375.67;1823853;78;25580;-47
2023/08/09 19:09:55;;;;;;;77.62;72.60;;;;;;;14.87;83.72;100378.72;1823784;78;25604;-49
2023/08/09 19:12:22;;;;;;;79.03;74.07;;;;;;;14.87;83.71;100380.09;1823790;77;25541;-47
2023/08/09 19:14:49;;;;;;;84.28;78.70;;;;;;;14.86;83.86;100387.44;1823640;78;27564;-48
2023/08/09 19:17:15;;;;;;;7.67;5.78;;;;;;;14.85;83.77;100390.52;1823616;78;26134;-47
2023/08/09 19:19:43;;;;;;;11.55;9.10;;;;;;;14.83;83.72;100388.67;1803147;78;25456;-48
2023/08/09 19:22:11;;;;;;;102.27;93.60;;;;;;;14.81;83.96;100386.28;1823757;78;25882;-49
2023/08/09 19:24:38;;;;;;;84.70;78.62;;;;;;;14.79;83.83;100390.49;1823776;78;25194;-48
2023/08/09 19:27:05;;;;;;;82.90;77.30;;;;;;;14.73;83.83;100386.61;1823768;78;28022;-49
2023/08/09 19:29:33;;;;;;;78.25;73.15;;;;;;;14.73;84.22;100393.99;1823684;78;25202;-50
2023/08/09 19:31:59;;;;;;;81.25;75.97;;;;;;;14.68;83.73;100392.84;1823725;78;25121;-52
2023/08/09 19:34:31;;;;;;;78.40;73.28;;;;;;;14.63;83.71;100399.28;1823741;78;25295;-49
2023/08/09 19:36:56;;;;;;;76.75;71.85;;;;;;;14.60;83.69;100401.30;1823492;78;25368;-48
2023/08/09 19:39:25;;;;;;;78.33;73.30;;;;;;;14.59;83.67;100404.35;1802989;78;28556;-45
2023/08/09 19:41:52;;;;;;;78.55;73.52;;;;;;;14.57;83.82;100406.02;1823811;78;25589;-46
2023/08/09 19:44:19;;;;;;;76.35;71.55;;;;;;;14.54;84.18;100401.23;1823784;78;25378;-46
2023/08/09 19:46:47;;;;;;;80.75;75.67;;;;;;;14.54;84.27;100406.67;1823686;78;25573;-48
2023/08/09 19:49:14;;;;;;;78.47;73.50;;;;;;;14.51;84.11;100411.44;1823667;77;25673;-48
2023/08/09 19:51:40;;;;;;;76.50;71.77;;;;;;;14.48;84.01;100422.41;1803072;78;28276;-46
2023/08/09 19:54:06;;;;;;;77.67;72.87;;;;;;;14.46;84.04;100421.95;1802733;78;25866;-48
2023/08/09 19:56:34;;;;;;;77.65;72.92;;;;;;;14.44;83.90;100424.77;1823712;78;25583;-47
2023/08/09 19:59:01;;;;;;;81.63;76.47;;;;;;;14.41;83.97;100424.88;1823670;78;25562;-48
2023/08/09 20:01:27;;;;;;;46.70;43.13;;;;;;;14.38;83.86;100428.25;1823392;78;25456;-48
2023/08/09 20:03:53;;;;;;;16.48;15.18;;;;;;;14.34;83.83;100423.25;1822305;78;28077;-47
2023/08/09 20:06:20;;;;;;;7.92;4.15;;;;;;;14.32;83.78;100420.05;1821972;78;26175;-47
2023/08/09 20:08:46;;;;;;;80.35;75.05;;;;;;;14.28;83.95;100425.92;1822200;78;25829;-47
2023/08/09 20:11:12;;;;;;;4.95;4.33;;;;;;;14.26;84.07;100432.27;1822179;78;25744;-47
2023/08/09 20:13:39;;;;;;;5.03;4.50;;;;;;;14.25;84.10;100436.92;1822228;78;25608;-47
2023/08/09 20:16:05;;;;;;;8.65;5.03;;;;;;;14.23;84.33;100434.28;1822126;78;27512;-46
2023/08/09 20:18:33;;;;;;;8.40;4.42;;;;;;;14.21;84.22;100431.89;1823436;78;25428;-44
2023/08/09 20:21:01;;;;;;;4.20;3.77;;;;;;;14.18;84.20;100432.00;1823761;78;25617;-47
2023/08/09 20:23:28;;;;;;;10.55;5.58;;;;;;;14.17;85.10;100429.61;1823634;78;26069;-47
2023/08/09 20:25:54;;;;;;;8.78;4.05;;;;;;;14.15;84.92;100435.38;1803262;78;25459;-47
2023/08/09 20:28:20;;;;;;;5.45;4.50;;;;;;;14.16;85.52;100432.08;1823643;78;29593;-46
2023/08/09 20:30:50;;;;;;;6.92;5.17;;;;;;;14.14;85.39;100438.42;1823553;78;25506;-49
2023/08/09 20:33:17;;;;;;;78.37;73.37;;;;;;;14.11;86.00;100431.70;1823662;78;25589;-48
2023/08/09 20:35:43;;;;;;;87.02;81.30;;;;;;;14.07;86.22;100430.77;1823650;78;25479;-47
2023/08/09 20:38:10;;;;;;;79.35;74.25;;;;;;;14.07;86.56;100432.70;1823672;78;25436;-46
2023/08/09 21:43:58;;;;;;;83.35;77.97;;;;;;;14.24;86.32;100495.16;1887128;76;34716;-45
2023/08/09 21:46:24;;;;;;;76.25;71.42;;;;;;;14.11;86.59;100483.38;1788123;80;25538;-47
2023/08/09 21:48:50;;;;;;;79.22;73.90;;;;;;;14.10;86.71;100487.81;1820451;78;27607;-48
2023/08/09 21:51:16;;;;;;;80.10;75.10;;;;;;;14.09;86.95;100488.92;1787994;80;25748;-46
2023/08/09 23:04:53;;;;;;;81.82;76.50;;;;;;;13.53;88.75;100531.09;1868295;76;34629;-46
2023/08/09 23:07:20;;;;;;;82.72;77.22;;;;;;;13.42;88.65;100521.13;1824419;78;25355;-46
2023/08/09 23:09:46;;;;;;;81.37;75.67;;;;;;;13.39;88.50;100523.12;1824508;78;28091;-46
2023/08/09 23:12:14;;;;;;;82.85;77.05;;;;;;;13.38;88.60;100521.52;1824363;78;25624;-46
2023/08/09 23:14:40;;;;;;;83.67;78.17;;;;;;;13.36;88.52;100529.98;1824506;78;25536;-46
2023/08/09 23:17:07;;;;;;;80.95;75.30;;;;;;;13.34;88.82;100533.59;1824593;78;25573;-47
2023/08/09 23:19:33;;;;;;;82.42;76.82;;;;;;;13.33;88.95;100540.16;1823437;78;25669;-46
2023/08/09 23:21:59;;;;;;;82.17;76.37;;;;;;;13.31;88.86;100536.92;1823262;78;26613;-46
2023/08/09 23:24:26;;;;;;;82.15;76.72;;;;;;;13.29;89.35;100537.80;1823105;78;25725;-46
2023/08/09 23:26:52;;;;;;;81.60;76.17;;;;;;;13.27;89.14;100531.33;1802544;78;25680;-47
2023/08/09 23:29:19;;;;;;;83.90;78.37;;;;;;;13.25;89.66;100534.94;1823182;78;25741;-46
2023/08/09 23:31:46;;;;;;;82.12;76.72;;;;;;;13.25;89.37;100540.37;1823198;78;25602;-46
2023/08/09 23:34:12;;;;;;;81.50;75.97;;;;;;;13.22;89.76;100541.00;1823905;77;26989;-46
2023/08/09 23:36:38;;;;;;;81.63;76.30;;;;;;;13.19;89.90;100541.64;1824342;77;25713;-46
2023/08/09 23:39:06;;;;;;;81.20;75.87;;;;;;;13.16;90.08;100540.12;1824444;78;25616;-47
2023/08/09 23:41:33;;;;;;;81.47;76.25;;;;;;;13.15;90.50;100537.19;1824413;78;25779;-46
2023/08/09 23:43:59;;;;;;;82.50;77.15;;;;;;;13.12;90.64;100545.41;1824384;78;25412;-46
2023/08/09 23:46:25;;;;;;;80.60;75.08;;;;;;;13.11;90.99;100547.08;1824466;78;27591;-49
2023/08/09 23:48:52;;;;;;;81.97;76.33;;;;;;;13.09;90.70;100547.39;1824345;78;25384;-46
2023/08/09 23:51:18;;;;;;;79.40;74.07;;;;;;;13.05;90.58;100549.95;1824430;78;25518;-47
2023/08/09 23:53:44;;;;;;;81.57;75.80;;;;;;;13.02;90.36;100542.44;1824392;78;25596;-47
2023/08/09 23:56:11;;;;;;;81.90;76.45;;;;;;;12.99;89.94;100546.35;1824404;78;25415;-46
2023/08/09 23:58:37;;;;;;;79.50;74.35;;;;;;;12.97;90.08;100545.31;1824440;78;27547;-47
